sensor_id;sensor_type;location;lat;lon;timestamp;P1;durP1;ratioP1;P2;durP2;ratioP2
19509;SDS011;9896;42.486;26.506;2022-08-06T00:02:20;14.73;;;12.57;;
19509;SDS011;9896;42.486;26.506;2022-08-06T00:04:48;16.27;;;12.30;;
19509;SDS011;9896;42.486;26.506;2022-08-06T00:07:15;12.73;;;10.30;;
19509;SDS011;9896;42.486;26.506;2022-08-06T00:09:42;12.83;;;10.93;;
19509;SDS011;9896;42.486;26.506;2022-08-06T00:12:08;12.83;;;11.00;;
19509;SDS011;9896;42.486;26.506;2022-08-06T00:14:34;13.47;;;11.13;;
19509;SDS011;9896;42.486;26.506;2022-08-06T00:17:00;14.67;;;10.47;;
19509;SDS011;9896;42.486;26.506;2022-08-06T00:19:26;15.23;;;10.47;;
19509;SDS011;9896;42.486;26.506;2022-08-06T00:21:52;16.13;;;11.70;;
19509;SDS011;9896;42.486;26.506;2022-08-06T00:24:18;13.83;;;10.73;;
19509;SDS011;9896;42.486;26.506;2022-08-06T00:26:44;12.50;;;10.60;;
19509;SDS011;9896;42.486;26.506;2022-08-06T00:29:11;14.83;;;11.13;;
19509;SDS011;9896;42.486;26.506;2022-08-06T00:31:36;13.90;;;11.50;;
19509;SDS011;9896;42.486;26.506;2022-08-06T00:34:02;14.37;;;10.67;;
19509;SDS011;9896;42.486;26.506;2022-08-06T00:36:29;15.60;;;10.63;;
19509;SDS011;9896;42.486;26.506;2022-08-06T00:38:57;13.93;;;11.57;;
19509;SDS011;9896;42.486;26.506;2022-08-06T00:41:24;14.17;;;11.13;;
19509;SDS011;9896;42.486;26.506;2022-08-06T00:43:51;14.63;;;11.00;;
19509;SDS011;9896;42.486;26.506;2022-08-06T00:46:16;15.47;;;11.43;;
19509;SDS011;9896;42.486;26.506;2022-08-06T00:48:42;17.07;;;11.77;;
19509;SDS011;9896;42.486;26.506;2022-08-06T00:51:09;15.80;;;11.23;;
19509;SDS011;9896;42.486;26.506;2022-08-06T00:53:35;13.43;;;12.03;;
19509;SDS011;9896;42.486;26.506;2022-08-06T00:56:02;17.17;;;11.73;;
19509;SDS011;9896;42.486;26.506;2022-08-06T00:58:28;14.03;;;11.20;;
19509;SDS011;9896;42.486;26.506;2022-08-06T01:00:54;12.27;;;10.97;;
19509;SDS011;9896;42.486;26.506;2022-08-06T01:03:20;13.90;;;11.23;;
19509;SDS011;9896;42.486;26.506;2022-08-06T01:05:45;15.27;;;11.17;;
19509;SDS011;9896;42.486;26.506;2022-08-06T01:08:11;15.00;;;11.60;;
19509;SDS011;9896;42.486;26.506;2022-08-06T01:10:37;18.43;;;12.20;;
19509;SDS011;9896;42.486;26.506;2022-08-06T01:13:03;17.90;;;11.50;;
19509;SDS011;9896;42.486;26.506;2022-08-06T01:15:28;18.03;;;11.57;;
19509;SDS011;9896;42.486;26.506;2022-08-06T01:17:58;15.33;;;12.33;;
19509;SDS011;9896;42.486;26.506;2022-08-06T01:29:08;12.80;;;9.70;;
19509;SDS011;9896;42.486;26.506;2022-08-06T01:31:58;16.53;;;10.33;;
19509;SDS011;9896;42.486;26.506;2022-08-06T01:34:40;18.17;;;10.07;;
19509;SDS011;9896;42.486;26.506;2022-08-06T01:37:21;11.90;;;9.13;;
19509;SDS011;9896;42.486;26.506;2022-08-06T01:39:53;10.77;;;9.23;;
19509;SDS011;9896;42.486;26.506;2022-08-06T01:42:24;11.37;;;9.77;;
19509;SDS011;9896;42.486;26.506;2022-08-06T01:44:53;11.77;;;9.93;;
19509;SDS011;9896;42.486;26.506;2022-08-06T01:47:22;12.40;;;9.30;;
19509;SDS011;9896;42.486;26.506;2022-08-06T01:49:51;13.50;;;9.30;;
19509;SDS011;9896;42.486;26.506;2022-08-06T01:52:20;10.13;;;8.77;;
19509;SDS011;9896;42.486;26.506;2022-08-06T01:54:48;11.97;;;9.60;;
19509;SDS011;9896;42.486;26.506;2022-08-06T01:57:16;11.53;;;9.53;;
19509;SDS011;9896;42.486;26.506;2022-08-06T01:59:45;11.57;;;9.60;;
19509;SDS011;9896;42.486;26.506;2022-08-06T02:02:15;16.50;;;9.53;;
19509;SDS011;9896;42.486;26.506;2022-08-06T02:04:44;15.07;;;10.23;;
19509;SDS011;9896;42.486;26.506;2022-08-06T02:07:12;15.43;;;9.67;;
19509;SDS011;9896;42.486;26.506;2022-08-06T02:09:40;14.60;;;10.20;;
19509;SDS011;9896;42.486;26.506;2022-08-06T02:12:12;14.37;;;10.30;;
19509;SDS011;9896;42.486;26.506;2022-08-06T02:14:44;11.63;;;9.57;;
19509;SDS011;9896;42.486;26.506;2022-08-06T02:17:15;11.57;;;9.80;;
19509;SDS011;9896;42.486;26.506;2022-08-06T02:19:43;14.13;;;9.87;;
19509;SDS011;9896;42.486;26.506;2022-08-06T02:22:11;14.07;;;9.97;;
19509;SDS011;9896;42.486;26.506;2022-08-06T02:24:38;13.33;;;10.30;;
19509;SDS011;9896;42.486;26.506;2022-08-06T02:27:04;11.20;;;9.57;;
19509;SDS011;9896;42.486;26.506;2022-08-06T02:29:32;15.73;;;9.60;;
19509;SDS011;9896;42.486;26.506;2022-08-06T02:31:59;12.37;;;9.90;;
19509;SDS011;9896;42.486;26.506;2022-08-06T02:34:24;13.77;;;10.23;;
19509;SDS011;9896;42.486;26.506;2022-08-06T02:36:58;12.23;;;9.63;;
19509;SDS011;9896;42.486;26.506;2022-08-06T02:42:39;16.93;;;10.13;;
19509;SDS011;9896;42.486;26.506;2022-08-06T02:45:36;12.57;;;10.97;;
19509;SDS011;9896;42.486;26.506;2022-08-06T02:48:13;14.37;;;10.60;;
19509;SDS011;9896;42.486;26.506;2022-08-06T02:50:50;12.10;;;10.80;;
19509;SDS011;9896;42.486;26.506;2022-08-06T02:53:21;14.43;;;11.67;;
19509;SDS011;9896;42.486;26.506;2022-08-06T02:56:03;15.00;;;11.43;;
19509;SDS011;9896;42.486;26.506;2022-08-06T02:58:37;15.33;;;10.73;;
19509;SDS011;9896;42.486;26.506;2022-08-06T03:01:08;13.90;;;10.53;;
19509;SDS011;9896;42.486;26.506;2022-08-06T03:03:37;18.10;;;11.30;;
19509;SDS011;9896;42.486;26.506;2022-08-06T03:06:04;19.23;;;11.50;;
19509;SDS011;9896;42.486;26.506;2022-08-06T03:08:32;16.37;;;12.00;;
19509;SDS011;9896;42.486;26.506;2022-08-06T03:11:00;15.00;;;10.90;;
19509;SDS011;9896;42.486;26.506;2022-08-06T03:13:28;15.37;;;10.87;;
19509;SDS011;9896;42.486;26.506;2022-08-06T03:15:56;13.87;;;9.93;;
19509;SDS011;9896;42.486;26.506;2022-08-06T03:18:23;17.40;;;10.70;;
19509;SDS011;9896;42.486;26.506;2022-08-06T03:20:51;16.90;;;10.70;;
19509;SDS011;9896;42.486;26.506;2022-08-06T03:23:17;13.07;;;10.40;;
19509;SDS011;9896;42.486;26.506;2022-08-06T03:25:44;17.13;;;11.43;;
19509;SDS011;9896;42.486;26.506;2022-08-06T03:28:13;12.43;;;10.60;;
19509;SDS011;9896;42.486;26.506;2022-08-06T03:30:40;13.47;;;10.90;;
19509;SDS011;9896;42.486;26.506;2022-08-06T03:33:08;18.77;;;13.80;;
19509;SDS011;9896;42.486;26.506;2022-08-06T03:35:37;27.97;;;15.40;;
19509;SDS011;9896;42.486;26.506;2022-08-06T03:38:05;23.17;;;11.00;;
19509;SDS011;9896;42.486;26.506;2022-08-06T03:40:32;15.07;;;11.47;;
19509;SDS011;9896;42.486;26.506;2022-08-06T03:42:59;16.43;;;10.13;;
19509;SDS011;9896;42.486;26.506;2022-08-06T03:45:24;13.17;;;10.20;;
19509;SDS011;9896;42.486;26.506;2022-08-06T03:47:53;11.20;;;9.53;;
19509;SDS011;9896;42.486;26.506;2022-08-06T03:50:31;13.77;;;10.27;;
19509;SDS011;9896;42.486;26.506;2022-08-06T03:53:04;14.63;;;11.17;;
19509;SDS011;9896;42.486;26.506;2022-08-06T03:55:35;16.40;;;10.83;;
19509;SDS011;9896;42.486;26.506;2022-08-06T03:58:04;18.00;;;10.77;;
19509;SDS011;9896;42.486;26.506;2022-08-06T04:03:00;16.40;;;11.73;;
19509;SDS011;9896;42.486;26.506;2022-08-06T04:05:29;19.90;;;12.17;;
19509;SDS011;9896;42.486;26.506;2022-08-06T04:08:02;19.40;;;13.17;;
19509;SDS011;9896;42.486;26.506;2022-08-06T04:10:43;22.53;;;13.23;;
19509;SDS011;9896;42.486;26.506;2022-08-06T04:13:12;22.40;;;13.50;;
19509;SDS011;9896;42.486;26.506;2022-08-06T04:15:39;20.30;;;14.03;;
19509;SDS011;9896;42.486;26.506;2022-08-06T04:18:09;19.80;;;12.20;;
19509;SDS011;9896;42.486;26.506;2022-08-06T04:20:38;17.43;;;10.80;;
19509;SDS011;9896;42.486;26.506;2022-08-06T04:23:08;18.50;;;11.27;;
19509;SDS011;9896;42.486;26.506;2022-08-06T04:25:34;17.10;;;11.63;;
19509;SDS011;9896;42.486;26.506;2022-08-06T04:28:04;16.27;;;10.97;;
19509;SDS011;9896;42.486;26.506;2022-08-06T04:30:31;15.17;;;10.13;;
19509;SDS011;9896;42.486;26.506;2022-08-06T04:32:58;15.70;;;11.73;;
19509;SDS011;9896;42.486;26.506;2022-08-06T04:35:26;17.17;;;11.40;;
19509;SDS011;9896;42.486;26.506;2022-08-06T04:37:54;16.33;;;11.30;;
19509;SDS011;9896;42.486;26.506;2022-08-06T04:40:20;20.10;;;12.57;;
19509;SDS011;9896;42.486;26.506;2022-08-06T04:42:47;14.93;;;11.57;;
19509;SDS011;9896;42.486;26.506;2022-08-06T04:45:12;17.50;;;11.87;;
19509;SDS011;9896;42.486;26.506;2022-08-06T04:47:38;16.77;;;11.37;;
19509;SDS011;9896;42.486;26.506;2022-08-06T04:50:04;14.07;;;10.97;;
19509;SDS011;9896;42.486;26.506;2022-08-06T04:52:30;14.90;;;10.43;;
19509;SDS011;9896;42.486;26.506;2022-08-06T04:54:57;12.97;;;11.37;;
19509;SDS011;9896;42.486;26.506;2022-08-06T04:57:23;18.60;;;11.20;;
19509;SDS011;9896;42.486;26.506;2022-08-06T04:59:48;13.63;;;11.40;;
19509;SDS011;9896;42.486;26.506;2022-08-06T05:02:14;14.03;;;11.03;;
19509;SDS011;9896;42.486;26.506;2022-08-06T05:04:39;14.67;;;11.37;;
19509;SDS011;9896;42.486;26.506;2022-08-06T05:09:36;16.63;;;10.90;;
19509;SDS011;9896;42.486;26.506;2022-08-06T05:12:06;16.03;;;11.30;;
19509;SDS011;9896;42.486;26.506;2022-08-06T05:14:45;13.97;;;10.83;;
19509;SDS011;9896;42.486;26.506;2022-08-06T05:17:17;15.87;;;10.93;;
19509;SDS011;9896;42.486;26.506;2022-08-06T05:19:53;13.73;;;10.57;;
19509;SDS011;9896;42.486;26.506;2022-08-06T05:22:31;11.67;;;10.23;;
19509;SDS011;9896;42.486;26.506;2022-08-06T05:24:57;12.77;;;10.27;;
19509;SDS011;9896;42.486;26.506;2022-08-06T05:27:23;17.77;;;10.47;;
19509;SDS011;9896;42.486;26.506;2022-08-06T05:29:49;13.07;;;10.23;;
19509;SDS011;9896;42.486;26.506;2022-08-06T05:32:15;17.33;;;10.53;;
19509;SDS011;9896;42.486;26.506;2022-08-06T05:34:41;13.17;;;9.30;;
19509;SDS011;9896;42.486;26.506;2022-08-06T05:37:07;32.17;;;20.30;;
19509;SDS011;9896;42.486;26.506;2022-08-06T05:39:32;24.43;;;17.30;;
19509;SDS011;9896;42.486;26.506;2022-08-06T05:41:58;15.60;;;10.00;;
19509;SDS011;9896;42.486;26.506;2022-08-06T05:44:23;12.33;;;9.07;;
19509;SDS011;9896;42.486;26.506;2022-08-06T05:46:54;13.63;;;9.20;;
19509;SDS011;9896;42.486;26.506;2022-08-06T05:52:09;13.73;;;9.60;;
19509;SDS011;9896;42.486;26.506;2022-08-06T05:57:37;15.53;;;10.60;;
19509;SDS011;9896;42.486;26.506;2022-08-06T06:00:07;20.80;;;10.75;;
19509;SDS011;9896;42.486;26.506;2022-08-06T06:02:41;16.65;;;10.55;;
19509;SDS011;9896;42.486;26.506;2022-08-06T06:05:09;14.88;;;10.13;;
19509;SDS011;9896;42.486;26.506;2022-08-06T06:07:36;13.82;;;10.00;;
19509;SDS011;9896;42.486;26.506;2022-08-06T06:10:03;15.95;;;9.38;;
19509;SDS011;9896;42.486;26.506;2022-08-06T06:12:30;11.68;;;9.98;;
19509;SDS011;9896;42.486;26.506;2022-08-06T06:14:57;15.30;;;10.00;;
19509;SDS011;9896;42.486;26.506;2022-08-06T06:17:30;14.35;;;9.40;;
19509;SDS011;9896;42.486;26.506;2022-08-06T06:22:37;13.38;;;9.88;;
19509;SDS011;9896;42.486;26.506;2022-08-06T06:25:11;12.32;;;9.77;;
19509;SDS011;9896;42.486;26.506;2022-08-06T06:30:39;14.27;;;9.43;;
19509;SDS011;9896;42.486;26.506;2022-08-06T06:35:55;14.20;;;10.57;;
19509;SDS011;9896;42.486;26.506;2022-08-06T06:41:16;16.27;;;9.88;;
19509;SDS011;9896;42.486;26.506;2022-08-06T06:47:08;14.05;;;9.10;;
19509;SDS011;9896;42.486;26.506;2022-08-06T06:49:42;14.90;;;9.38;;
19509;SDS011;9896;42.486;26.506;2022-08-06T06:55:02;13.95;;;9.02;;
19509;SDS011;9896;42.486;26.506;2022-08-06T06:57:34;11.68;;;8.60;;
19509;SDS011;9896;42.486;26.506;2022-08-06T07:00:04;13.13;;;8.65;;
19509;SDS011;9896;42.486;26.506;2022-08-06T07:02:31;13.07;;;8.50;;
19509;SDS011;9896;42.486;26.506;2022-08-06T07:05:01;13.25;;;8.55;;
19509;SDS011;9896;42.486;26.506;2022-08-06T07:07:31;11.05;;;7.60;;
19509;SDS011;9896;42.486;26.506;2022-08-06T07:09:59;12.13;;;9.05;;
19509;SDS011;9896;42.486;26.506;2022-08-06T07:12:27;13.98;;;8.07;;
19509;SDS011;9896;42.486;26.506;2022-08-06T07:14:55;12.35;;;7.82;;
19509;SDS011;9896;42.486;26.506;2022-08-06T07:17:23;11.73;;;7.38;;
19509;SDS011;9896;42.486;26.506;2022-08-06T07:19:51;10.43;;;7.57;;
19509;SDS011;9896;42.486;26.506;2022-08-06T07:22:19;11.82;;;7.43;;
19509;SDS011;9896;42.486;26.506;2022-08-06T07:24:46;10.00;;;7.10;;
19509;SDS011;9896;42.486;26.506;2022-08-06T07:27:13;9.23;;;6.78;;
19509;SDS011;9896;42.486;26.506;2022-08-06T07:29:40;6.28;;;5.50;;
19509;SDS011;9896;42.486;26.506;2022-08-06T07:32:09;9.93;;;6.45;;
19509;SDS011;9896;42.486;26.506;2022-08-06T07:34:35;10.20;;;6.75;;
19509;SDS011;9896;42.486;26.506;2022-08-06T07:37:01;8.85;;;6.55;;
19509;SDS011;9896;42.486;26.506;2022-08-06T07:39:28;8.93;;;6.35;;
19509;SDS011;9896;42.486;26.506;2022-08-06T07:41:59;8.65;;;6.32;;
19509;SDS011;9896;42.486;26.506;2022-08-06T07:44:27;36.25;;;17.70;;
19509;SDS011;9896;42.486;26.506;2022-08-06T07:46:57;20.50;;;11.73;;
19509;SDS011;9896;42.486;26.506;2022-08-06T07:49:26;14.63;;;7.60;;
19509;SDS011;9896;42.486;26.506;2022-08-06T07:52:02;7.53;;;5.75;;
19509;SDS011;9896;42.486;26.506;2022-08-06T07:54:29;8.05;;;6.05;;
19509;SDS011;9896;42.486;26.506;2022-08-06T07:56:56;9.40;;;5.28;;
19509;SDS011;9896;42.486;26.506;2022-08-06T07:59:22;6.80;;;5.07;;
19509;SDS011;9896;42.486;26.506;2022-08-06T08:01:49;6.50;;;5.68;;
19509;SDS011;9896;42.486;26.506;2022-08-06T08:04:16;8.38;;;5.30;;
19509;SDS011;9896;42.486;26.506;2022-08-06T08:07:04;6.07;;;4.75;;
19509;SDS011;9896;42.486;26.506;2022-08-06T08:09:32;7.28;;;4.72;;
19509;SDS011;9896;42.486;26.506;2022-08-06T08:12:00;9.52;;;5.32;;
19509;SDS011;9896;42.486;26.506;2022-08-06T08:14:27;8.50;;;4.78;;
19509;SDS011;9896;42.486;26.506;2022-08-06T08:16:53;5.30;;;4.80;;
19509;SDS011;9896;42.486;26.506;2022-08-06T08:19:20;6.18;;;5.05;;
19509;SDS011;9896;42.486;26.506;2022-08-06T08:21:52;5.88;;;5.22;;
19509;SDS011;9896;42.486;26.506;2022-08-06T08:24:18;6.78;;;4.93;;
19509;SDS011;9896;42.486;26.506;2022-08-06T08:26:44;6.05;;;5.18;;
19509;SDS011;9896;42.486;26.506;2022-08-06T08:29:10;6.38;;;4.78;;
19509;SDS011;9896;42.486;26.506;2022-08-06T08:31:36;5.03;;;4.57;;
19509;SDS011;9896;42.486;26.506;2022-08-06T08:34:02;7.65;;;5.60;;
19509;SDS011;9896;42.486;26.506;2022-08-06T08:36:28;13.25;;;5.00;;
19509;SDS011;9896;42.486;26.506;2022-08-06T08:38:53;9.40;;;5.35;;
19509;SDS011;9896;42.486;26.506;2022-08-06T08:41:24;8.25;;;5.25;;
19509;SDS011;9896;42.486;26.506;2022-08-06T08:43:55;6.18;;;5.55;;
19509;SDS011;9896;42.486;26.506;2022-08-06T08:46:25;11.15;;;5.40;;
19509;SDS011;9896;42.486;26.506;2022-08-06T08:48:52;5.90;;;5.00;;
19509;SDS011;9896;42.486;26.506;2022-08-06T08:51:20;9.40;;;5.25;;
19509;SDS011;9896;42.486;26.506;2022-08-06T08:53:52;10.57;;;4.80;;
19509;SDS011;9896;42.486;26.506;2022-08-06T08:56:19;5.70;;;5.00;;
19509;SDS011;9896;42.486;26.506;2022-08-06T08:58:45;10.70;;;5.28;;
19509;SDS011;9896;42.486;26.506;2022-08-06T09:01:11;11.45;;;5.10;;
19509;SDS011;9896;42.486;26.506;2022-08-06T09:03:38;6.97;;;4.60;;
19509;SDS011;9896;42.486;26.506;2022-08-06T09:06:05;5.00;;;4.60;;
19509;SDS011;9896;42.486;26.506;2022-08-06T09:08:31;5.07;;;4.55;;
19509;SDS011;9896;42.486;26.506;2022-08-06T09:10:57;7.32;;;4.53;;
19509;SDS011;9896;42.486;26.506;2022-08-06T09:13:25;4.93;;;4.28;;
19509;SDS011;9896;42.486;26.506;2022-08-06T09:15:52;6.30;;;4.82;;
19509;SDS011;9896;42.486;26.506;2022-08-06T09:18:19;5.55;;;4.20;;
19509;SDS011;9896;42.486;26.506;2022-08-06T09:20:45;7.63;;;4.93;;
19509;SDS011;9896;42.486;26.506;2022-08-06T09:23:11;12.20;;;4.78;;
19509;SDS011;9896;42.486;26.506;2022-08-06T09:25:45;7.25;;;4.57;;
19509;SDS011;9896;42.486;26.506;2022-08-06T09:28:25;7.47;;;4.32;;
19509;SDS011;9896;42.486;26.506;2022-08-06T09:30:57;7.78;;;4.43;;
19509;SDS011;9896;42.486;26.506;2022-08-06T09:33:30;7.13;;;4.60;;
19509;SDS011;9896;42.486;26.506;2022-08-06T09:36:01;9.10;;;4.40;;
19509;SDS011;9896;42.486;26.506;2022-08-06T09:38:47;6.70;;;4.45;;
19509;SDS011;9896;42.486;26.506;2022-08-06T09:41:14;6.65;;;4.60;;
19509;SDS011;9896;42.486;26.506;2022-08-06T09:43:42;5.75;;;4.18;;
19509;SDS011;9896;42.486;26.506;2022-08-06T09:46:09;4.78;;;4.30;;
19509;SDS011;9896;42.486;26.506;2022-08-06T09:48:34;7.22;;;4.15;;
19509;SDS011;9896;42.486;26.506;2022-08-06T09:51:00;5.72;;;4.38;;
19509;SDS011;9896;42.486;26.506;2022-08-06T09:53:27;6.80;;;4.72;;
19509;SDS011;9896;42.486;26.506;2022-08-06T09:55:53;8.65;;;4.97;;
19509;SDS011;9896;42.486;26.506;2022-08-06T09:58:53;5.88;;;4.60;;
19509;SDS011;9896;42.486;26.506;2022-08-06T10:03:44;6.75;;;4.45;;
19509;SDS011;9896;42.486;26.506;2022-08-06T10:06:11;5.55;;;4.25;;
19509;SDS011;9896;42.486;26.506;2022-08-06T10:08:41;13.05;;;4.57;;
19509;SDS011;9896;42.486;26.506;2022-08-06T10:11:08;7.90;;;4.47;;
19509;SDS011;9896;42.486;26.506;2022-08-06T10:13:35;8.90;;;4.60;;
19509;SDS011;9896;42.486;26.506;2022-08-06T10:16:23;4.65;;;4.15;;
19509;SDS011;9896;42.486;26.506;2022-08-06T10:18:52;8.00;;;4.57;;
19509;SDS011;9896;42.486;26.506;2022-08-06T10:21:18;5.10;;;4.55;;
19509;SDS011;9896;42.486;26.506;2022-08-06T10:23:52;7.75;;;4.35;;
19509;SDS011;9896;42.486;26.506;2022-08-06T10:26:30;5.78;;;4.45;;
19509;SDS011;9896;42.486;26.506;2022-08-06T10:29:05;7.45;;;4.43;;
19509;SDS011;9896;42.486;26.506;2022-08-06T10:31:32;4.63;;;4.22;;
19509;SDS011;9896;42.486;26.506;2022-08-06T10:34:09;6.45;;;4.00;;
19509;SDS011;9896;42.486;26.506;2022-08-06T10:36:40;6.22;;;3.92;;
19509;SDS011;9896;42.486;26.506;2022-08-06T10:39:08;7.90;;;4.53;;
19509;SDS011;9896;42.486;26.506;2022-08-06T10:41:35;9.38;;;4.22;;
19509;SDS011;9896;42.486;26.506;2022-08-06T10:44:04;7.07;;;4.55;;
19509;SDS011;9896;42.486;26.506;2022-08-06T10:46:30;5.90;;;4.20;;
19509;SDS011;9896;42.486;26.506;2022-08-06T10:48:57;6.07;;;4.00;;
19509;SDS011;9896;42.486;26.506;2022-08-06T10:51:23;7.20;;;3.85;;
19509;SDS011;9896;42.486;26.506;2022-08-06T10:53:49;4.65;;;4.22;;
19509;SDS011;9896;42.486;26.506;2022-08-06T10:56:16;6.88;;;4.43;;
19509;SDS011;9896;42.486;26.506;2022-08-06T10:58:43;6.15;;;4.20;;
19509;SDS011;9896;42.486;26.506;2022-08-06T11:01:10;5.57;;;4.03;;
19509;SDS011;9896;42.486;26.506;2022-08-06T11:15:08;9.82;;;4.55;;
19509;SDS011;9896;42.486;26.506;2022-08-06T11:17:44;4.55;;;4.15;;
19509;SDS011;9896;42.486;26.506;2022-08-06T11:22:58;4.88;;;3.90;;
19509;SDS011;9896;42.486;26.506;2022-08-06T11:28:09;5.53;;;3.92;;
19509;SDS011;9896;42.486;26.506;2022-08-06T11:33:06;4.60;;;4.03;;
19509;SDS011;9896;42.486;26.506;2022-08-06T11:37:58;4.90;;;4.07;;
19509;SDS011;9896;42.486;26.506;2022-08-06T11:54:13;6.07;;;4.30;;
19509;SDS011;9896;42.486;26.506;2022-08-06T11:59:23;6.60;;;4.10;;
19509;SDS011;9896;42.486;26.506;2022-08-06T12:01:50;9.23;;;4.28;;
19509;SDS011;9896;42.486;26.506;2022-08-06T12:07:19;5.47;;;4.25;;
19509;SDS011;9896;42.486;26.506;2022-08-06T12:15:00;6.72;;;4.20;;
19509;SDS011;9896;42.486;26.506;2022-08-06T12:20:39;4.78;;;3.70;;
19509;SDS011;9896;42.486;26.506;2022-08-06T12:23:10;4.88;;;4.00;;
19509;SDS011;9896;42.486;26.506;2022-08-06T12:25:41;4.70;;;3.97;;
19509;SDS011;9896;42.486;26.506;2022-08-06T12:28:12;4.22;;;3.83;;
19509;SDS011;9896;42.486;26.506;2022-08-06T12:33:19;5.38;;;4.03;;
19509;SDS011;9896;42.486;26.506;2022-08-06T12:38:20;6.20;;;3.65;;
19509;SDS011;9896;42.486;26.506;2022-08-06T12:41:05;6.13;;;4.45;;
19509;SDS011;9896;42.486;26.506;2022-08-06T12:43:34;5.32;;;4.07;;
19509;SDS011;9896;42.486;26.506;2022-08-06T12:46:02;7.25;;;4.15;;
19509;SDS011;9896;42.486;26.506;2022-08-06T12:48:30;3.80;;;3.50;;
19509;SDS011;9896;42.486;26.506;2022-08-06T12:51:01;3.80;;;3.50;;
19509;SDS011;9896;42.486;26.506;2022-08-06T12:53:30;6.72;;;3.60;;
19509;SDS011;9896;42.486;26.506;2022-08-06T12:55:55;6.60;;;4.32;;
19509;SDS011;9896;42.486;26.506;2022-08-06T12:58:26;7.35;;;3.97;;
19509;SDS011;9896;42.486;26.506;2022-08-06T13:00:56;6.45;;;3.92;;
19509;SDS011;9896;42.486;26.506;2022-08-06T13:03:24;10.00;;;4.53;;
19509;SDS011;9896;42.486;26.506;2022-08-06T13:05:54;4.28;;;3.88;;
19509;SDS011;9896;42.486;26.506;2022-08-06T13:08:21;6.10;;;4.03;;
19509;SDS011;9896;42.486;26.506;2022-08-06T13:10:50;3.97;;;3.58;;
19509;SDS011;9896;42.486;26.506;2022-08-06T13:13:20;6.30;;;3.45;;
19509;SDS011;9896;42.486;26.506;2022-08-06T13:18:26;6.30;;;3.38;;
19509;SDS011;9896;42.486;26.506;2022-08-06T13:20:52;6.35;;;3.72;;
19509;SDS011;9896;42.486;26.506;2022-08-06T13:23:37;5.85;;;4.20;;
19509;SDS011;9896;42.486;26.506;2022-08-06T13:26:13;18.60;;;5.97;;
19509;SDS011;9896;42.486;26.506;2022-08-06T13:29:01;8.00;;;5.05;;
19509;SDS011;9896;42.486;26.506;2022-08-06T13:31:35;10.20;;;5.80;;
19509;SDS011;9896;42.486;26.506;2022-08-06T13:34:03;9.30;;;5.10;;
19509;SDS011;9896;42.486;26.506;2022-08-06T13:36:31;11.05;;;5.35;;
19509;SDS011;9896;42.486;26.506;2022-08-06T13:38:58;6.57;;;5.35;;
19509;SDS011;9896;42.486;26.506;2022-08-06T13:41:29;7.10;;;5.20;;
19509;SDS011;9896;42.486;26.506;2022-08-06T13:43:58;7.43;;;5.05;;
19509;SDS011;9896;42.486;26.506;2022-08-06T13:46:27;9.18;;;5.13;;
19509;SDS011;9896;42.486;26.506;2022-08-06T13:48:54;7.88;;;4.90;;
19509;SDS011;9896;42.486;26.506;2022-08-06T13:51:24;10.10;;;5.55;;
19509;SDS011;9896;42.486;26.506;2022-08-06T13:53:50;7.70;;;5.70;;
19509;SDS011;9896;42.486;26.506;2022-08-06T13:56:16;6.90;;;5.30;;
19509;SDS011;9896;42.486;26.506;2022-08-06T13:58:43;10.38;;;5.60;;
19509;SDS011;9896;42.486;26.506;2022-08-06T14:01:12;5.63;;;5.05;;
19509;SDS011;9896;42.486;26.506;2022-08-06T14:03:39;7.13;;;5.82;;
19509;SDS011;9896;42.486;26.506;2022-08-06T14:06:05;12.02;;;4.82;;
19509;SDS011;9896;42.486;26.506;2022-08-06T14:08:30;7.80;;;5.60;;
19509;SDS011;9896;42.486;26.506;2022-08-06T14:10:56;5.68;;;5.18;;
19509;SDS011;9896;42.486;26.506;2022-08-06T14:13:21;6.03;;;5.40;;
19509;SDS011;9896;42.486;26.506;2022-08-06T14:15:48;7.40;;;5.10;;
19509;SDS011;9896;42.486;26.506;2022-08-06T14:18:15;5.93;;;5.30;;
19509;SDS011;9896;42.486;26.506;2022-08-06T14:20:46;6.75;;;5.43;;
19509;SDS011;9896;42.486;26.506;2022-08-06T14:23:12;10.10;;;5.22;;
19509;SDS011;9896;42.486;26.506;2022-08-06T14:25:38;9.98;;;5.32;;
19509;SDS011;9896;42.486;26.506;2022-08-06T14:28:04;7.43;;;6.00;;
19509;SDS011;9896;42.486;26.506;2022-08-06T14:30:30;6.72;;;5.30;;
19509;SDS011;9896;42.486;26.506;2022-08-06T14:32:56;6.57;;;4.95;;
19509;SDS011;9896;42.486;26.506;2022-08-06T14:35:21;10.50;;;5.53;;
19509;SDS011;9896;42.486;26.506;2022-08-06T14:37:47;7.70;;;5.55;;
19509;SDS011;9896;42.486;26.506;2022-08-06T14:40:13;7.55;;;5.50;;
19509;SDS011;9896;42.486;26.506;2022-08-06T14:42:39;8.65;;;5.38;;
19509;SDS011;9896;42.486;26.506;2022-08-06T14:45:24;10.60;;;5.18;;
19509;SDS011;9896;42.486;26.506;2022-08-06T14:47:50;7.15;;;5.18;;
19509;SDS011;9896;42.486;26.506;2022-08-06T14:50:16;10.75;;;5.20;;
19509;SDS011;9896;42.486;26.506;2022-08-06T14:52:43;7.32;;;5.40;;
19509;SDS011;9896;42.486;26.506;2022-08-06T14:55:09;8.52;;;5.82;;
19509;SDS011;9896;42.486;26.506;2022-08-06T14:57:35;7.35;;;5.30;;
19509;SDS011;9896;42.486;26.506;2022-08-06T15:00:04;7.00;;;5.57;;
19509;SDS011;9896;42.486;26.506;2022-08-06T15:02:30;9.57;;;6.72;;
19509;SDS011;9896;42.486;26.506;2022-08-06T15:04:56;9.15;;;5.43;;
19509;SDS011;9896;42.486;26.506;2022-08-06T15:07:22;7.45;;;5.70;;
19509;SDS011;9896;42.486;26.506;2022-08-06T15:09:47;7.03;;;5.55;;
19509;SDS011;9896;42.486;26.506;2022-08-06T15:12:14;7.75;;;5.43;;
19509;SDS011;9896;42.486;26.506;2022-08-06T15:14:40;7.50;;;5.38;;
19509;SDS011;9896;42.486;26.506;2022-08-06T15:17:06;11.65;;;5.80;;
19509;SDS011;9896;42.486;26.506;2022-08-06T15:19:32;7.97;;;5.30;;
19509;SDS011;9896;42.486;26.506;2022-08-06T15:21:57;10.20;;;5.78;;
19509;SDS011;9896;42.486;26.506;2022-08-06T15:24:23;13.15;;;5.50;;
19509;SDS011;9896;42.486;26.506;2022-08-06T15:26:48;7.22;;;5.85;;
19509;SDS011;9896;42.486;26.506;2022-08-06T15:29:14;8.90;;;5.18;;
19509;SDS011;9896;42.486;26.506;2022-08-06T15:31:40;8.95;;;5.63;;
19509;SDS011;9896;42.486;26.506;2022-08-06T15:34:05;8.52;;;5.53;;
19509;SDS011;9896;42.486;26.506;2022-08-06T15:36:31;6.65;;;5.95;;
19509;SDS011;9896;42.486;26.506;2022-08-06T15:38:58;12.35;;;6.32;;
19509;SDS011;9896;42.486;26.506;2022-08-06T15:41:24;7.07;;;5.50;;
19509;SDS011;9896;42.486;26.506;2022-08-06T15:43:52;5.82;;;5.22;;
19509;SDS011;9896;42.486;26.506;2022-08-06T15:46:18;13.15;;;5.78;;
19509;SDS011;9896;42.486;26.506;2022-08-06T15:48:45;8.68;;;6.25;;
19509;SDS011;9896;42.486;26.506;2022-08-06T15:51:11;7.10;;;5.93;;
19509;SDS011;9896;42.486;26.506;2022-08-06T15:53:37;7.85;;;5.90;;
19509;SDS011;9896;42.486;26.506;2022-08-06T15:56:04;13.68;;;8.10;;
19509;SDS011;9896;42.486;26.506;2022-08-06T15:58:29;10.52;;;7.20;;
19509;SDS011;9896;42.486;26.506;2022-08-06T16:00:55;13.25;;;7.75;;
19509;SDS011;9896;42.486;26.506;2022-08-06T16:03:21;7.53;;;6.57;;
19509;SDS011;9896;42.486;26.506;2022-08-06T16:05:46;5.95;;;5.10;;
19509;SDS011;9896;42.486;26.506;2022-08-06T16:08:12;6.45;;;5.75;;
19509;SDS011;9896;42.486;26.506;2022-08-06T16:10:45;7.45;;;6.43;;
19509;SDS011;9896;42.486;26.506;2022-08-06T16:13:13;6.65;;;5.95;;
19509;SDS011;9896;42.486;26.506;2022-08-06T16:15:47;6.15;;;5.53;;
19509;SDS011;9896;42.486;26.506;2022-08-06T16:18:17;9.95;;;5.53;;
19509;SDS011;9896;42.486;26.506;2022-08-06T16:20:47;9.02;;;6.07;;
19509;SDS011;9896;42.486;26.506;2022-08-06T16:23:13;11.23;;;5.25;;
19509;SDS011;9896;42.486;26.506;2022-08-06T16:25:41;6.05;;;5.45;;